Frasnes-lez-Buissenal, Belgium
Current Conditions -  °F | °C
As of 9:25 PM on Sunday 21 Dec 2014 (Local Time) from EBCV Reporting Station
Overcast Overcast  
Wind Chill: 39°   Ceiling: 1800
Heat Index: 46°   Visibility: 6mi
Dew Point: 41°   Wind: 18mph
Humidity: 81%   Direction: 220°SW
Pressure: 30.36"   Gusts: NA
Location:  50.67°N, 3.62°E
Report Text: EBCV 212025Z AUTO 22016KT 9999 BKN018/// BKN021/// OVC029/// 08/05 Q1028 WHT
Loading
Personal Weather Stations






























Interactive Weather Map New forecast layout! Learn more

10-Day Weather Forecast

Advertisements
Track Severe Weather on mobile